sensor_id;sensor_type;location;lat;lon;timestamp;temperature;humidity
41924;DHT22;27613;48.116;11.656;2023-05-20T00:00:11;12.30;99.90
41924;DHT22;27613;48.116;11.656;2023-05-20T00:02:36;12.30;99.90
41924;DHT22;27613;48.116;11.656;2023-05-20T00:05:02;12.30;99.90
41924;DHT22;27613;48.116;11.656;2023-05-20T00:07:28;12.40;99.90
41924;DHT22;27613;48.116;11.656;2023-05-20T00:09:53;12.40;99.90
41924;DHT22;27613;48.116;11.656;2023-05-20T00:12:19;12.40;99.90
41924;DHT22;27613;48.116;11.656;2023-05-20T00:14:45;12.40;99.90
41924;DHT22;27613;48.116;11.656;2023-05-20T00:17:10;12.30;99.90
41924;DHT22;27613;48.116;11.656;2023-05-20T00:19:36;12.30;99.90
41924;DHT22;27613;48.116;11.656;2023-05-20T00:22:01;12.30;99.90
41924;DHT22;27613;48.116;11.656;2023-05-20T00:24:27;12.30;99.90
41924;DHT22;27613;48.116;11.656;2023-05-20T00:26:52;12.30;99.90
41924;DHT22;27613;48.116;11.656;2023-05-20T00:29:20;12.30;99.90
41924;DHT22;27613;48.116;11.656;2023-05-20T00:31:46;12.30;99.90
41924;DHT22;27613;48.116;11.656;2023-05-20T00:34:11;12.30;99.90
41924;DHT22;27613;48.116;11.656;2023-05-20T00:36:37;12.40;99.90
41924;DHT22;27613;48.116;11.656;2023-05-20T00:39:02;12.40;99.90
41924;DHT22;27613;48.116;11.656;2023-05-20T00:41:28;12.40;99.90
41924;DHT22;27613;48.116;11.656;2023-05-20T00:43:54;12.40;99.90
41924;DHT22;27613;48.116;11.656;2023-05-20T00:46:23;12.40;99.90
41924;DHT22;27613;48.116;11.656;2023-05-20T00:48:50;12.40;99.90
41924;DHT22;27613;48.116;11.656;2023-05-20T00:51:16;12.40;99.90
41924;DHT22;27613;48.116;11.656;2023-05-20T00:53:42;12.40;99.90
41924;DHT22;27613;48.116;11.656;2023-05-20T00:56:08;12.40;99.90
41924;DHT22;27613;48.116;11.656;2023-05-20T00:58:34;12.40;99.90
41924;DHT22;27613;48.116;11.656;2023-05-20T01:01:01;12.30;99.90
41924;DHT22;27613;48.116;11.656;2023-05-20T01:03:27;12.30;99.90
41924;DHT22;27613;48.116;11.656;2023-05-20T01:05:53;12.30;99.90
41924;DHT22;27613;48.116;11.656;2023-05-20T01:08:19;12.30;99.90
41924;DHT22;27613;48.116;11.656;2023-05-20T01:10:48;12.30;99.90
41924;DHT22;27613;48.116;11.656;2023-05-20T01:13:19;12.20;99.90
41924;DHT22;27613;48.116;11.656;2023-05-20T01:15:47;12.30;99.90
41924;DHT22;27613;48.116;11.656;2023-05-20T01:18:13;12.20;99.90
41924;DHT22;27613;48.116;11.656;2023-05-20T01:20:45;12.20;99.90
41924;DHT22;27613;48.116;11.656;2023-05-20T01:23:11;12.20;99.90
41924;DHT22;27613;48.116;11.656;2023-05-20T01:25:37;12.20;99.90
41924;DHT22;27613;48.116;11.656;2023-05-20T01:28:03;12.20;99.90
41924;DHT22;27613;48.116;11.656;2023-05-20T01:30:34;12.20;99.90
41924;DHT22;27613;48.116;11.656;2023-05-20T01:33:06;12.20;99.90
41924;DHT22;27613;48.116;11.656;2023-05-20T01:35:32;12.30;99.90
41924;DHT22;27613;48.116;11.656;2023-05-20T01:37:59;12.30;99.90
41924;DHT22;27613;48.116;11.656;2023-05-20T01:40:26;12.20;99.90
41924;DHT22;27613;48.116;11.656;2023-05-20T01:42:52;12.20;99.90
41924;DHT22;27613;48.116;11.656;2023-05-20T01:45:19;12.20;99.90
41924;DHT22;27613;48.116;11.656;2023-05-20T01:47:45;12.20;99.90
41924;DHT22;27613;48.116;11.656;2023-05-20T01:50:11;12.20;99.90
41924;DHT22;27613;48.116;11.656;2023-05-20T01:52:36;12.20;99.90
41924;DHT22;27613;48.116;11.656;2023-05-20T01:55:02;12.10;99.90
41924;DHT22;27613;48.116;11.656;2023-05-20T01:57:28;12.10;99.90
41924;DHT22;27613;48.116;11.656;2023-05-20T01:59:53;12.10;99.90
41924;DHT22;27613;48.116;11.656;2023-05-20T02:02:19;12.20;99.90
41924;DHT22;27613;48.116;11.656;2023-05-20T02:04:45;12.20;99.90
41924;DHT22;27613;48.116;11.656;2023-05-20T02:07:17;12.20;99.90
41924;DHT22;27613;48.116;11.656;2023-05-20T02:09:43;12.10;99.90
41924;DHT22;27613;48.116;11.656;2023-05-20T02:12:09;12.10;99.90
41924;DHT22;27613;48.116;11.656;2023-05-20T02:14:45;12.10;99.90
41924;DHT22;27613;48.116;11.656;2023-05-20T02:17:11;12.10;99.90
41924;DHT22;27613;48.116;11.656;2023-05-20T02:19:38;12.10;99.90
41924;DHT22;27613;48.116;11.656;2023-05-20T02:22:05;12.10;99.90
41924;DHT22;27613;48.116;11.656;2023-05-20T02:24:30;12.20;99.90
41924;DHT22;27613;48.116;11.656;2023-05-20T02:26:56;12.10;99.90
41924;DHT22;27613;48.116;11.656;2023-05-20T02:29:23;12.10;99.90
41924;DHT22;27613;48.116;11.656;2023-05-20T02:31:49;12.10;99.90
41924;DHT22;27613;48.116;11.656;2023-05-20T02:34:16;12.10;99.90
41924;DHT22;27613;48.116;11.656;2023-05-20T02:36:42;12.10;99.90
41924;DHT22;27613;48.116;11.656;2023-05-20T02:39:07;12.00;99.90
41924;DHT22;27613;48.116;11.656;2023-05-20T02:41:33;12.00;99.90
41924;DHT22;27613;48.116;11.656;2023-05-20T02:43:58;12.00;99.90
41924;DHT22;27613;48.116;11.656;2023-05-20T02:46:24;12.00;99.90
41924;DHT22;27613;48.116;11.656;2023-05-20T02:48:50;12.00;99.90
41924;DHT22;27613;48.116;11.656;2023-05-20T02:51:15;12.00;99.90
41924;DHT22;27613;48.116;11.656;2023-05-20T02:53:41;11.90;99.90
41924;DHT22;27613;48.116;11.656;2023-05-20T02:56:06;11.90;99.90
41924;DHT22;27613;48.116;11.656;2023-05-20T02:58:33;11.90;99.90
41924;DHT22;27613;48.116;11.656;2023-05-20T03:01:00;11.90;99.90
41924;DHT22;27613;48.116;11.656;2023-05-20T03:03:26;11.90;99.90
41924;DHT22;27613;48.116;11.656;2023-05-20T03:05:52;11.90;99.90
41924;DHT22;27613;48.116;11.656;2023-05-20T03:08:19;11.90;99.90
41924;DHT22;27613;48.116;11.656;2023-05-20T03:10:45;11.90;99.90
41924;DHT22;27613;48.116;11.656;2023-05-20T03:13:10;11.90;99.90
41924;DHT22;27613;48.116;11.656;2023-05-20T03:15:37;12.00;99.90
41924;DHT22;27613;48.116;11.656;2023-05-20T03:18:03;11.90;99.90
41924;DHT22;27613;48.116;11.656;2023-05-20T03:20:29;11.90;99.90
41924;DHT22;27613;48.116;11.656;2023-05-20T03:22:55;12.00;99.90
41924;DHT22;27613;48.116;11.656;2023-05-20T03:25:21;12.00;99.90
41924;DHT22;27613;48.116;11.656;2023-05-20T03:27:47;11.90;99.90
41924;DHT22;27613;48.116;11.656;2023-05-20T03:30:12;11.90;99.90
41924;DHT22;27613;48.116;11.656;2023-05-20T03:32:38;11.90;99.90
41924;DHT22;27613;48.116;11.656;2023-05-20T03:35:04;11.90;99.90
41924;DHT22;27613;48.116;11.656;2023-05-20T03:37:30;11.80;99.90
41924;DHT22;27613;48.116;11.656;2023-05-20T03:39:56;11.80;99.90
41924;DHT22;27613;48.116;11.656;2023-05-20T03:42:21;11.90;99.90
41924;DHT22;27613;48.116;11.656;2023-05-20T03:44:47;11.80;99.90
41924;DHT22;27613;48.116;11.656;2023-05-20T03:47:12;11.90;99.90
41924;DHT22;27613;48.116;11.656;2023-05-20T03:49:38;11.90;99.90
41924;DHT22;27613;48.116;11.656;2023-05-20T03:52:05;11.90;99.90
41924;DHT22;27613;48.116;11.656;2023-05-20T03:54:31;11.90;99.90
41924;DHT22;27613;48.116;11.656;2023-05-20T03:56:56;11.90;99.90
41924;DHT22;27613;48.116;11.656;2023-05-20T03:59:22;11.90;99.90
41924;DHT22;27613;48.116;11.656;2023-05-20T04:01:48;11.90;99.90
41924;DHT22;27613;48.116;11.656;2023-05-20T04:04:13;11.90;99.90
41924;DHT22;27613;48.116;11.656;2023-05-20T04:06:39;12.00;99.90
41924;DHT22;27613;48.116;11.656;2023-05-20T04:09:05;12.00;99.90
41924;DHT22;27613;48.116;11.656;2023-05-20T04:11:30;12.00;99.90
41924;DHT22;27613;48.116;11.656;2023-05-20T04:13:56;12.00;99.90
41924;DHT22;27613;48.116;11.656;2023-05-20T04:16:23;12.00;99.90
41924;DHT22;27613;48.116;11.656;2023-05-20T04:18:48;12.00;99.90
41924;DHT22;27613;48.116;11.656;2023-05-20T04:21:15;12.00;99.90
41924;DHT22;27613;48.116;11.656;2023-05-20T04:23:40;11.90;99.90
41924;DHT22;27613;48.116;11.656;2023-05-20T04:26:06;12.00;99.90
41924;DHT22;27613;48.116;11.656;2023-05-20T04:28:31;12.00;99.90
41924;DHT22;27613;48.116;11.656;2023-05-20T04:31:01;12.00;99.90
41924;DHT22;27613;48.116;11.656;2023-05-20T04:33:29;12.00;99.90
41924;DHT22;27613;48.116;11.656;2023-05-20T04:35:54;12.00;99.90
41924;DHT22;27613;48.116;11.656;2023-05-20T04:38:25;12.10;99.90
41924;DHT22;27613;48.116;11.656;2023-05-20T04:40:57;12.10;99.90
41924;DHT22;27613;48.116;11.656;2023-05-20T04:43:27;12.10;99.90
41924;DHT22;27613;48.116;11.656;2023-05-20T04:45:57;12.10;99.90
41924;DHT22;27613;48.116;11.656;2023-05-20T04:48:25;12.00;99.90
41924;DHT22;27613;48.116;11.656;2023-05-20T04:50:51;12.00;99.90
41924;DHT22;27613;48.116;11.656;2023-05-20T04:53:20;12.10;99.90
41924;DHT22;27613;48.116;11.656;2023-05-20T04:55:48;12.10;99.90
41924;DHT22;27613;48.116;11.656;2023-05-20T04:58:18;12.20;99.90
41924;DHT22;27613;48.116;11.656;2023-05-20T05:00:44;12.20;99.90
41924;DHT22;27613;48.116;11.656;2023-05-20T05:03:10;12.20;99.90
41924;DHT22;27613;48.116;11.656;2023-05-20T05:05:38;12.30;99.90
41924;DHT22;27613;48.116;11.656;2023-05-20T05:08:05;12.30;99.90
41924;DHT22;27613;48.116;11.656;2023-05-20T05:10:31;12.30;99.90
41924;DHT22;27613;48.116;11.656;2023-05-20T05:12:57;12.30;99.90
41924;DHT22;27613;48.116;11.656;2023-05-20T05:15:23;12.30;99.90
41924;DHT22;27613;48.116;11.656;2023-05-20T05:17:48;12.30;99.90
41924;DHT22;27613;48.116;11.656;2023-05-20T05:20:14;12.30;99.90
41924;DHT22;27613;48.116;11.656;2023-05-20T05:22:40;12.40;99.90
41924;DHT22;27613;48.116;11.656;2023-05-20T05:25:07;12.40;99.90
41924;DHT22;27613;48.116;11.656;2023-05-20T05:27:33;12.40;99.90
41924;DHT22;27613;48.116;11.656;2023-05-20T05:29:59;12.40;99.90
41924;DHT22;27613;48.116;11.656;2023-05-20T05:32:25;12.50;99.90
41924;DHT22;27613;48.116;11.656;2023-05-20T05:34:50;12.50;99.90
41924;DHT22;27613;48.116;11.656;2023-05-20T05:37:16;12.60;99.90
41924;DHT22;27613;48.116;11.656;2023-05-20T05:39:41;12.70;99.90
41924;DHT22;27613;48.116;11.656;2023-05-20T05:42:07;12.70;99.90
41924;DHT22;27613;48.116;11.656;2023-05-20T05:44:32;12.70;99.90
41924;DHT22;27613;48.116;11.656;2023-05-20T05:46:58;12.70;99.90
41924;DHT22;27613;48.116;11.656;2023-05-20T05:49:24;12.80;99.90
41924;DHT22;27613;48.116;11.656;2023-05-20T05:51:50;12.80;99.90
41924;DHT22;27613;48.116;11.656;2023-05-20T05:54:15;12.70;99.90
41924;DHT22;27613;48.116;11.656;2023-05-20T05:56:41;12.70;99.90
41924;DHT22;27613;48.116;11.656;2023-05-20T05:59:07;12.80;99.90
41924;DHT22;27613;48.116;11.656;2023-05-20T06:01:32;12.80;99.90
41924;DHT22;27613;48.116;11.656;2023-05-20T06:03:58;12.80;99.90
41924;DHT22;27613;48.116;11.656;2023-05-20T06:06:23;12.80;99.90
41924;DHT22;27613;48.116;11.656;2023-05-20T06:08:49;12.90;99.90
41924;DHT22;27613;48.116;11.656;2023-05-20T06:11:15;13.00;99.90
41924;DHT22;27613;48.116;11.656;2023-05-20T06:13:40;13.00;99.90
41924;DHT22;27613;48.116;11.656;2023-05-20T06:16:06;13.10;99.90
41924;DHT22;27613;48.116;11.656;2023-05-20T06:18:32;13.10;99.90
41924;DHT22;27613;48.116;11.656;2023-05-20T06:20:58;13.10;99.90
41924;DHT22;27613;48.116;11.656;2023-05-20T06:23:24;13.20;99.90
41924;DHT22;27613;48.116;11.656;2023-05-20T06:25:50;13.30;99.90
41924;DHT22;27613;48.116;11.656;2023-05-20T06:28:16;13.40;99.90
41924;DHT22;27613;48.116;11.656;2023-05-20T06:30:42;13.30;99.90
41924;DHT22;27613;48.116;11.656;2023-05-20T06:33:07;13.40;99.90
41924;DHT22;27613;48.116;11.656;2023-05-20T06:35:33;13.60;99.90
41924;DHT22;27613;48.116;11.656;2023-05-20T06:38:01;13.80;99.90
41924;DHT22;27613;48.116;11.656;2023-05-20T06:40:27;13.70;99.90
41924;DHT22;27613;48.116;11.656;2023-05-20T06:42:53;13.70;99.90
41924;DHT22;27613;48.116;11.656;2023-05-20T06:45:19;13.80;99.90
41924;DHT22;27613;48.116;11.656;2023-05-20T06:47:44;13.80;99.90
41924;DHT22;27613;48.116;11.656;2023-05-20T06:50:12;13.90;99.90
41924;DHT22;27613;48.116;11.656;2023-05-20T06:52:37;13.90;99.90
41924;DHT22;27613;48.116;11.656;2023-05-20T06:55:04;13.70;99.90
41924;DHT22;27613;48.116;11.656;2023-05-20T06:57:29;13.70;99.90
41924;DHT22;27613;48.116;11.656;2023-05-20T06:59:55;13.80;99.90
41924;DHT22;27613;48.116;11.656;2023-05-20T07:02:21;14.10;99.90
41924;DHT22;27613;48.116;11.656;2023-05-20T07:04:47;14.50;99.90
41924;DHT22;27613;48.116;11.656;2023-05-20T07:07:13;14.90;99.90
41924;DHT22;27613;48.116;11.656;2023-05-20T07:09:38;15.20;99.90
41924;DHT22;27613;48.116;11.656;2023-05-20T07:12:04;15.00;99.90
41924;DHT22;27613;48.116;11.656;2023-05-20T07:14:30;14.90;99.90
41924;DHT22;27613;48.116;11.656;2023-05-20T07:16:55;14.90;99.90
41924;DHT22;27613;48.116;11.656;2023-05-20T07:19:21;14.80;99.90
41924;DHT22;27613;48.116;11.656;2023-05-20T07:21:46;14.80;99.90
41924;DHT22;27613;48.116;11.656;2023-05-20T07:24:14;15.00;99.90
41924;DHT22;27613;48.116;11.656;2023-05-20T07:26:39;15.20;99.90
41924;DHT22;27613;48.116;11.656;2023-05-20T07:29:05;15.40;99.90
41924;DHT22;27613;48.116;11.656;2023-05-20T07:31:30;15.70;99.90
41924;DHT22;27613;48.116;11.656;2023-05-20T07:33:56;15.90;99.90
41924;DHT22;27613;48.116;11.656;2023-05-20T07:36:22;16.00;99.90
41924;DHT22;27613;48.116;11.656;2023-05-20T07:38:47;16.20;99.90
41924;DHT22;27613;48.116;11.656;2023-05-20T07:41:13;15.90;99.90
41924;DHT22;27613;48.116;11.656;2023-05-20T07:43:39;15.90;99.90
41924;DHT22;27613;48.116;11.656;2023-05-20T07:46:05;16.30;99.90
41924;DHT22;27613;48.116;11.656;2023-05-20T07:48:30;16.50;99.90
41924;DHT22;27613;48.116;11.656;2023-05-20T07:50:56;16.50;99.90
41924;DHT22;27613;48.116;11.656;2023-05-20T07:53:24;16.30;99.90
41924;DHT22;27613;48.116;11.656;2023-05-20T07:55:49;16.60;99.90
41924;DHT22;27613;48.116;11.656;2023-05-20T07:58:15;16.80;99.90
41924;DHT22;27613;48.116;11.656;2023-05-20T08:00:40;16.90;99.90
41924;DHT22;27613;48.116;11.656;2023-05-20T08:03:06;17.20;99.90
41924;DHT22;27613;48.116;11.656;2023-05-20T08:05:32;17.40;99.90
41924;DHT22;27613;48.116;11.656;2023-05-20T08:08:00;18.00;99.90
41924;DHT22;27613;48.116;11.656;2023-05-20T08:10:26;18.00;99.90
41924;DHT22;27613;48.116;11.656;2023-05-20T08:12:51;18.10;99.90
41924;DHT22;27613;48.116;11.656;2023-05-20T08:15:17;18.00;99.90
41924;DHT22;27613;48.116;11.656;2023-05-20T08:17:42;18.00;99.90
41924;DHT22;27613;48.116;11.656;2023-05-20T08:20:08;18.00;99.90
41924;DHT22;27613;48.116;11.656;2023-05-20T08:22:35;18.20;99.40
41924;DHT22;27613;48.116;11.656;2023-05-20T08:25:01;18.10;99.90
41924;DHT22;27613;48.116;11.656;2023-05-20T08:27:27;18.30;99.90
41924;DHT22;27613;48.116;11.656;2023-05-20T08:29:52;18.30;99.00
41924;DHT22;27613;48.116;11.656;2023-05-20T08:32:18;18.20;98.90
41924;DHT22;27613;48.116;11.656;2023-05-20T08:34:44;18.90;97.80
41924;DHT22;27613;48.116;11.656;2023-05-20T08:37:09;18.90;97.00
41924;DHT22;27613;48.116;11.656;2023-05-20T08:39:35;18.80;97.00
41924;DHT22;27613;48.116;11.656;2023-05-20T08:42:00;19.00;97.70
41924;DHT22;27613;48.116;11.656;2023-05-20T08:44:27;19.10;95.70
41924;DHT22;27613;48.116;11.656;2023-05-20T08:46:53;19.30;95.40
41924;DHT22;27613;48.116;11.656;2023-05-20T08:49:20;19.70;94.10
41924;DHT22;27613;48.116;11.656;2023-05-20T08:51:46;19.90;94.00
41924;DHT22;27613;48.116;11.656;2023-05-20T08:54:12;20.10;92.30
41924;DHT22;27613;48.116;11.656;2023-05-20T08:56:39;20.40;91.40
41924;DHT22;27613;48.116;11.656;2023-05-20T08:59:07;20.50;90.60
41924;DHT22;27613;48.116;11.656;2023-05-20T09:01:40;20.30;90.00
41924;DHT22;27613;48.116;11.656;2023-05-20T09:04:07;20.30;90.00
41924;DHT22;27613;48.116;11.656;2023-05-20T09:06:45;20.50;89.70
41924;DHT22;27613;48.116;11.656;2023-05-20T09:09:12;20.10;89.60
41924;DHT22;27613;48.116;11.656;2023-05-20T09:11:39;20.50;89.60
41924;DHT22;27613;48.116;11.656;2023-05-20T09:14:05;20.80;88.60
41924;DHT22;27613;48.116;11.656;2023-05-20T09:16:31;21.10;86.70
41924;DHT22;27613;48.116;11.656;2023-05-20T09:18:57;21.50;85.00
41924;DHT22;27613;48.116;11.656;2023-05-20T09:21:29;22.00;83.30
41924;DHT22;27613;48.116;11.656;2023-05-20T09:23:55;23.20;81.60
41924;DHT22;27613;48.116;11.656;2023-05-20T09:26:27;23.70;76.00
41924;DHT22;27613;48.116;11.656;2023-05-20T09:28:58;23.30;76.20
41924;DHT22;27613;48.116;11.656;2023-05-20T09:31:27;23.20;75.70
41924;DHT22;27613;48.116;11.656;2023-05-20T09:33:54;22.80;75.00
41924;DHT22;27613;48.116;11.656;2023-05-20T09:36:22;23.50;75.20
41924;DHT22;27613;48.116;11.656;2023-05-20T09:38:50;23.50;74.50
41924;DHT22;27613;48.116;11.656;2023-05-20T09:41:17;23.10;75.60
41924;DHT22;27613;48.116;11.656;2023-05-20T09:43:46;22.60;76.70
41924;DHT22;27613;48.116;11.656;2023-05-20T09:46:13;22.80;78.20
41924;DHT22;27613;48.116;11.656;2023-05-20T09:48:39;22.90;75.30
41924;DHT22;27613;48.116;11.656;2023-05-20T09:51:05;22.90;76.60
41924;DHT22;27613;48.116;11.656;2023-05-20T09:53:32;23.00;75.70
41924;DHT22;27613;48.116;11.656;2023-05-20T09:55:58;23.10;74.20
41924;DHT22;27613;48.116;11.656;2023-05-20T09:58:24;23.20;75.10
41924;DHT22;27613;48.116;11.656;2023-05-20T10:00:50;23.30;74.90
41924;DHT22;27613;48.116;11.656;2023-05-20T10:03:26;23.20;74.90
41924;DHT22;27613;48.116;11.656;2023-05-20T10:06:10;22.40;74.50
41924;DHT22;27613;48.116;11.656;2023-05-20T10:08:56;22.20;77.20
41924;DHT22;27613;48.116;11.656;2023-05-20T10:11:34;23.50;74.60
41924;DHT22;27613;48.116;11.656;2023-05-20T10:14:32;24.60;71.70
41924;DHT22;27613;48.116;11.656;2023-05-20T10:17:22;25.20;68.20
41924;DHT22;27613;48.116;11.656;2023-05-20T10:19:49;26.00;65.90
41924;DHT22;27613;48.116;11.656;2023-05-20T10:22:28;26.10;64.40
41924;DHT22;27613;48.116;11.656;2023-05-20T10:25:04;27.10;63.30
41924;DHT22;27613;48.116;11.656;2023-05-20T10:27:43;27.70;62.40
41924;DHT22;27613;48.116;11.656;2023-05-20T10:30:17;28.20;60.00
41924;DHT22;27613;48.116;11.656;2023-05-20T10:32:52;28.60;59.90
41924;DHT22;27613;48.116;11.656;2023-05-20T10:35:24;29.80;57.50
41924;DHT22;27613;48.116;11.656;2023-05-20T10:37:54;29.60;57.70
41924;DHT22;27613;48.116;11.656;2023-05-20T10:40:30;30.10;55.30
41924;DHT22;27613;48.116;11.656;2023-05-20T10:42:56;30.90;55.50
41924;DHT22;27613;48.116;11.656;2023-05-20T10:45:32;30.90;54.40
41924;DHT22;27613;48.116;11.656;2023-05-20T10:48:01;30.50;52.90
41924;DHT22;27613;48.116;11.656;2023-05-20T10:50:32;30.40;53.80
41924;DHT22;27613;48.116;11.656;2023-05-20T10:53:13;29.00;54.30
41924;DHT22;27613;48.116;11.656;2023-05-20T10:55:45;28.90;55.80
41924;DHT22;27613;48.116;11.656;2023-05-20T10:58:13;29.00;55.70
41924;DHT22;27613;48.116;11.656;2023-05-20T11:00:39;29.20;55.60
41924;DHT22;27613;48.116;11.656;2023-05-20T11:03:05;29.70;55.30
41924;DHT22;27613;48.116;11.656;2023-05-20T11:05:31;30.40;54.80
41924;DHT22;27613;48.116;11.656;2023-05-20T11:08:06;31.10;53.90
41924;DHT22;27613;48.116;11.656;2023-05-20T11:10:33;32.40;51.80
41924;DHT22;27613;48.116;11.656;2023-05-20T11:13:00;32.40;51.20
41924;DHT22;27613;48.116;11.656;2023-05-20T11:15:26;32.30;49.50
41924;DHT22;27613;48.116;11.656;2023-05-20T11:17:55;32.70;49.50
41924;DHT22;27613;48.116;11.656;2023-05-20T11:20:22;33.40;49.10
41924;DHT22;27613;48.116;11.656;2023-05-20T11:22:52;32.80;49.00
41924;DHT22;27613;48.116;11.656;2023-05-20T11:25:18;32.50;48.20
41924;DHT22;27613;48.116;11.656;2023-05-20T11:27:44;31.60;50.70
41924;DHT22;27613;48.116;11.656;2023-05-20T11:30:13;31.50;51.80
41924;DHT22;27613;48.116;11.656;2023-05-20T11:32:57;32.30;51.30
41924;DHT22;27613;48.116;11.656;2023-05-20T11:35:24;32.00;49.90
41924;DHT22;27613;48.116;11.656;2023-05-20T11:37:54;31.30;50.80
41924;DHT22;27613;48.116;11.656;2023-05-20T11:40:25;30.40;50.80
41924;DHT22;27613;48.116;11.656;2023-05-20T11:42:59;30.80;52.10
41924;DHT22;27613;48.116;11.656;2023-05-20T11:45:25;31.30;50.60
41924;DHT22;27613;48.116;11.656;2023-05-20T11:48:04;31.10;50.40
41924;DHT22;27613;48.116;11.656;2023-05-20T11:50:41;31.10;51.30
41924;DHT22;27613;48.116;11.656;2023-05-20T11:53:17;30.80;51.80
41924;DHT22;27613;48.116;11.656;2023-05-20T11:56:03;29.70;53.10
41924;DHT22;27613;48.116;11.656;2023-05-20T11:58:30;30.40;52.50
41924;DHT22;27613;48.116;11.656;2023-05-20T12:00:56;30.70;50.90
41924;DHT22;27613;48.116;11.656;2023-05-20T12:03:21;31.20;50.40
41924;DHT22;27613;48.116;11.656;2023-05-20T12:05:48;31.90;49.20
41924;DHT22;27613;48.116;11.656;2023-05-20T12:08:15;31.90;49.40
41924;DHT22;27613;48.116;11.656;2023-05-20T12:10:41;32.30;49.50
41924;DHT22;27613;48.116;11.656;2023-05-20T12:13:07;32.00;48.30
41924;DHT22;27613;48.116;11.656;2023-05-20T12:15:38;32.00;48.40
41924;DHT22;27613;48.116;11.656;2023-05-20T12:18:03;31.90;48.20
41924;DHT22;27613;48.116;11.656;2023-05-20T12:20:30;31.90;48.70
41924;DHT22;27613;48.116;11.656;2023-05-20T12:22:58;31.10;48.90
41924;DHT22;27613;48.116;11.656;2023-05-20T12:25:24;30.80;48.80
41924;DHT22;27613;48.116;11.656;2023-05-20T12:27:50;30.60;49.90
41924;DHT22;27613;48.116;11.656;2023-05-20T12:30:21;31.00;49.80
41924;DHT22;27613;48.116;11.656;2023-05-20T12:32:48;31.00;50.00
41924;DHT22;27613;48.116;11.656;2023-05-20T12:35:23;31.30;48.80
41924;DHT22;27613;48.116;11.656;2023-05-20T12:37:48;31.00;49.10
41924;DHT22;27613;48.116;11.656;2023-05-20T12:40:14;32.00;49.30
41924;DHT22;27613;48.116;11.656;2023-05-20T12:42:40;32.30;48.60
41924;DHT22;27613;48.116;11.656;2023-05-20T12:45:07;33.00;49.00
41924;DHT22;27613;48.116;11.656;2023-05-20T12:47:33;32.50;48.20
41924;DHT22;27613;48.116;11.656;2023-05-20T12:50:00;32.30;47.20
41924;DHT22;27613;48.116;11.656;2023-05-20T12:52:26;32.70;48.00
41924;DHT22;27613;48.116;11.656;2023-05-20T12:54:55;32.50;46.60
41924;DHT22;27613;48.116;11.656;2023-05-20T12:57:22;32.90;47.40
41924;DHT22;27613;48.116;11.656;2023-05-20T12:59:48;31.40;49.50
41924;DHT22;27613;48.116;11.656;2023-05-20T13:02:14;31.20;48.80
41924;DHT22;27613;48.116;11.656;2023-05-20T13:04:39;30.90;49.40
41924;DHT22;27613;48.116;11.656;2023-05-20T13:07:05;31.30;50.80
41924;DHT22;27613;48.116;11.656;2023-05-20T13:09:30;31.10;50.40
41924;DHT22;27613;48.116;11.656;2023-05-20T13:11:57;31.10;50.60
41924;DHT22;27613;48.116;11.656;2023-05-20T13:14:22;31.00;51.30
41924;DHT22;27613;48.116;11.656;2023-05-20T13:16:50;30.90;51.30
41924;DHT22;27613;48.116;11.656;2023-05-20T13:19:23;31.10;50.80
41924;DHT22;27613;48.116;11.656;2023-05-20T13:21:49;30.90;51.90
41924;DHT22;27613;48.116;11.656;2023-05-20T13:24:16;30.60;51.50
41924;DHT22;27613;48.116;11.656;2023-05-20T13:26:42;31.10;51.50
41924;DHT22;27613;48.116;11.656;2023-05-20T13:29:08;31.30;50.40
41924;DHT22;27613;48.116;11.656;2023-05-20T13:31:34;31.80;50.60
41924;DHT22;27613;48.116;11.656;2023-05-20T13:34:00;31.60;50.70
41924;DHT22;27613;48.116;11.656;2023-05-20T13:36:26;31.90;50.20
41924;DHT22;27613;48.116;11.656;2023-05-20T13:38:51;31.90;50.90
41924;DHT22;27613;48.116;11.656;2023-05-20T13:41:17;31.10;51.50
41924;DHT22;27613;48.116;11.656;2023-05-20T13:43:43;30.90;52.40
41924;DHT22;27613;48.116;11.656;2023-05-20T13:46:08;30.50;52.20
41924;DHT22;27613;48.116;11.656;2023-05-20T13:48:34;30.20;52.60
41924;DHT22;27613;48.116;11.656;2023-05-20T13:51:00;29.40;54.00
41924;DHT22;27613;48.116;11.656;2023-05-20T13:53:26;29.40;53.90
41924;DHT22;27613;48.116;11.656;2023-05-20T13:55:52;29.20;53.60
41924;DHT22;27613;48.116;11.656;2023-05-20T13:58:18;28.80;54.50
41924;DHT22;27613;48.116;11.656;2023-05-20T14:00:43;28.40;54.60
41924;DHT22;27613;48.116;11.656;2023-05-20T14:03:09;28.10;53.70
41924;DHT22;27613;48.116;11.656;2023-05-20T14:05:34;27.70;53.60
41924;DHT22;27613;48.116;11.656;2023-05-20T14:08:00;27.70;53.90
41924;DHT22;27613;48.116;11.656;2023-05-20T14:10:26;27.80;54.60
41924;DHT22;27613;48.116;11.656;2023-05-20T14:12:52;27.20;55.20
41924;DHT22;27613;48.116;11.656;2023-05-20T14:15:18;26.80;55.30
41924;DHT22;27613;48.116;11.656;2023-05-20T14:17:44;26.70;57.00
41924;DHT22;27613;48.116;11.656;2023-05-20T14:20:10;26.40;56.80
41924;DHT22;27613;48.116;11.656;2023-05-20T14:22:36;26.20;57.20
41924;DHT22;27613;48.116;11.656;2023-05-20T14:25:01;26.20;58.10
41924;DHT22;27613;48.116;11.656;2023-05-20T14:27:28;25.90;58.10
41924;DHT22;27613;48.116;11.656;2023-05-20T14:29:54;25.90;58.10
41924;DHT22;27613;48.116;11.656;2023-05-20T14:32:19;25.70;59.10
41924;DHT22;27613;48.116;11.656;2023-05-20T14:34:45;26.00;59.40
41924;DHT22;27613;48.116;11.656;2023-05-20T14:37:10;26.00;58.90
41924;DHT22;27613;48.116;11.656;2023-05-20T14:39:36;26.00;59.40
41924;DHT22;27613;48.116;11.656;2023-05-20T14:42:02;26.20;59.00
41924;DHT22;27613;48.116;11.656;2023-05-20T14:44:28;26.50;59.20
41924;DHT22;27613;48.116;11.656;2023-05-20T14:46:54;26.70;58.80
41924;DHT22;27613;48.116;11.656;2023-05-20T14:49:20;26.80;57.30
41924;DHT22;27613;48.116;11.656;2023-05-20T14:51:45;26.80;58.30
41924;DHT22;27613;48.116;11.656;2023-05-20T14:54:11;26.70;58.80
41924;DHT22;27613;48.116;11.656;2023-05-20T14:56:38;27.10;57.40
41924;DHT22;27613;48.116;11.656;2023-05-20T14:59:05;27.60;55.70
41924;DHT22;27613;48.116;11.656;2023-05-20T15:01:31;27.70;55.80
41924;DHT22;27613;48.116;11.656;2023-05-20T15:03:56;27.30;56.80
41924;DHT22;27613;48.116;11.656;2023-05-20T15:06:22;27.20;57.20
41924;DHT22;27613;48.116;11.656;2023-05-20T15:08:47;27.60;57.90
41924;DHT22;27613;48.116;11.656;2023-05-20T15:11:13;27.30;56.80
41924;DHT22;27613;48.116;11.656;2023-05-20T15:13:38;27.10;56.70